Time;durP1;ratioP1;P1;durP2;ratioP2;P2;SDS_P1;SDS_P2;PMS_P1;PMS_P2;Temp;Humidity;BMP_temperature;BMP_pressure;BME280_temperature;BME280_humidity;BME280_pressure;Samples;Min_cycle;Max_cycle;Signal;HPM_P1;HPM_P2
2023/04/10 00:02:06;;;;;;;;;;;;;;;;;;5053542;28;5053;-64
2023/04/10 00:04:31;;;;;;;;;;;;;;;;;;5041688;28;4535;-64
2023/04/10 00:06:57;;;;;;;;;;;;;;;;;;5047091;28;3215;-64
2023/04/10 00:09:22;;;;;;;;;;;;;;;;;;5048522;28;4618;-64
2023/04/10 00:11:47;;;;;;;;;;;;;;;;;;5049241;28;4987;-64
2023/04/10 00:14:12;;;;;;;;;;;;;;;;;;5055267;28;4944;-64
2023/04/10 00:16:38;;;;;;;;;;;;;;;;;;5087757;28;4669;-64
2023/04/10 00:19:03;;;;;;;;;;;;;;;;;;5053343;28;3184;-64
2023/04/10 00:21:28;;;;;;;;;;;;;;;;;;5053804;28;4957;-64
2023/04/10 00:23:53;;;;;;;;;;;;;;;;;;5057483;28;4455;-64
2023/04/10 00:26:19;;;;;;;;;;;;;;;;;;5052683;28;5094;-64
2023/04/10 00:28:45;;;;;;;;;;;;;;;;;;5048948;28;5129;-63
2023/04/10 00:31:10;;;;;;;;;;;;;;;;;;5060905;28;1185;-64
2023/04/10 00:33:35;;;;;;;;;;;;;;;;;;5051492;28;4462;-63
2023/04/10 00:36:00;;;;;;;;;;;;;;;;;;5057189;28;4439;-65
2023/04/10 00:38:26;;;;;;;;;;;;;;;;;;5051308;28;4614;-64
2023/04/10 00:40:51;;;;;;;;;;;;;;;;;;5049533;28;4697;-63
2023/04/10 00:43:19;;;;;;;;;;;;;;;;;;5048504;28;3366;-64
2023/04/10 00:45:44;;;;;;;;;;;;;;;;;;5051733;28;4560;-64
2023/04/10 00:48:09;;;;;;;;;;;;;;;;;;5058861;28;4478;-64
2023/04/10 00:50:35;;;;;;;;;;;;;;;;;;5051201;28;4452;-64
2023/04/10 00:53:00;;;;;;;;;;;;;;;;;;5053553;28;5242;-65
2023/04/10 00:55:26;;;;;;;;;;;;;;;;;;5079232;28;5015;-65
2023/04/10 00:57:51;;;;;;;;;;;;;;;;;;5067232;28;3563;-64
2023/04/10 01:00:16;;;;;;;;;;;;;;;;;;5054347;28;4423;-64
2023/04/10 01:02:41;;;;;;;;;;;;;;;;;;5053846;28;4514;-64
2023/04/10 01:05:07;;;;;;;;;;;;;;;;;;5076671;28;5617;-64
2023/04/10 01:07:51;;;;;;;;;;;;;;;;;;5077260;28;4538;-64
2023/04/10 01:10:35;;;;;;;;;;;;;;;;;;5042942;28;3390;-64
2023/04/10 01:13:04;;;;;;;;;;;;;;;;;;5050877;28;5020;-63
2023/04/10 01:15:29;;;;;;;;;;;;;;;;;;5054163;28;4593;-63
2023/04/10 01:17:54;;;;;;;;;;;;;;;;;;5068231;28;4562;-63
2023/04/10 01:20:24;;;;;;;;;;;;;;;;;;5047943;28;4647;-64
2023/04/10 01:23:08;;;;;;;;;;;;;;;;;;5049878;28;4489;-64
2023/04/10 01:25:37;;;;;;;;;;;;;;;;;;5049270;28;5220;-64
2023/04/10 01:28:17;;;;;;;;;;;;;;;;;;5050563;28;3311;-63
2023/04/10 01:30:42;;;;;;;;;;;;;;;;;;5051368;28;4795;-63
2023/04/10 01:33:09;;;;;;;;;;;;;;;;;;5086192;28;4702;-63
2023/04/10 01:35:34;;;;;;;;;;;;;;;;;;5046113;28;4582;-63
2023/04/10 01:38:01;;;;;;;;;;;;;;;;;;5078461;28;5815;-63
2023/04/10 01:40:26;;;;;;;;;;;;;;;;;;5053946;28;4865;-63
2023/04/10 01:42:52;;;;;;;;;;;;;;;;;;5073333;28;3419;-63
2023/04/10 01:45:19;;;;;;;;;;;;;;;;;;5052060;28;4446;-63
2023/04/10 01:47:44;;;;;;;;;;;;;;;;;;5051118;28;4506;-63
2023/04/10 01:50:10;;;;;;;;;;;;;;;;;;5047503;28;4518;-63
2023/04/10 01:52:35;;;;;;;;;;;;;;;;;;5047811;28;4579;-63
2023/04/10 01:55:00;;;;;;;;;;;;;;;;;;5064737;28;3271;-65
2023/04/10 01:57:26;;;;;;;;;;;;;;;;;;5085009;28;5113;-63
2023/04/10 01:59:51;;;;;;;;;;;;;;;;;;5049757;28;4641;-63
2023/04/10 02:02:16;;;;;;;;;;;;;;;;;;5049570;28;5100;-63
2023/04/10 02:04:42;;;;;;;;;;;;;;;;;;5052037;28;4518;-61
2023/04/10 02:07:15;;;;;;;;;;;;;;;;;;5054817;28;3235;-62
2023/04/10 02:09:56;;;;;;;;;;;;;;;;;;5086596;28;5024;-63
2023/04/10 02:12:22;;;;;;;;;;;;;;;;;;5040281;28;5184;-62
2023/04/10 02:14:47;;;;;;;;;;;;;;;;;;5047694;28;4516;-63
2023/04/10 02:17:14;;;;;;;;;;;;;;;;;;5050925;28;4759;-63
2023/04/10 02:19:39;;;;;;;;;;;;;;;;;;5043593;28;4534;-63
2023/04/10 02:22:05;;;;;;;;;;;;;;;;;;5078957;28;3125;-63
2023/04/10 02:24:30;;;;;;;;;;;;;;;;;;5041132;28;4617;-63
2023/04/10 02:26:56;;;;;;;;;;;;;;;;;;5077784;28;4642;-63
2023/04/10 02:29:21;;;;;;;;;;;;;;;;;;5046581;28;4679;-63
2023/04/10 02:31:47;;;;;;;;;;;;;;;;;;5058214;28;4574;-63
2023/04/10 02:34:12;;;;;;;;;;;;;;;;;;5086205;28;3169;-63
2023/04/10 02:36:38;;;;;;;;;;;;;;;;;;5061848;28;4780;-64
2023/04/10 02:39:03;;;;;;;;;;;;;;;;;;5044054;28;4664;-63
2023/04/10 02:41:29;;;;;;;;;;;;;;;;;;5052371;28;5047;-62
2023/04/10 02:43:54;;;;;;;;;;;;;;;;;;5052825;28;4441;-63
2023/04/10 02:46:19;;;;;;;;;;;;;;;;;;5054588;28;2021;-63
2023/04/10 02:48:44;;;;;;;;;;;;;;;;;;5044209;28;4573;-60
2023/04/10 02:51:10;;;;;;;;;;;;;;;;;;5055328;28;4802;-62
2023/04/10 02:53:35;;;;;;;;;;;;;;;;;;5050398;28;4725;-63
2023/04/10 02:56:01;;;;;;;;;;;;;;;;;;5054367;28;4797;-64
2023/04/10 02:58:26;;;;;;;;;;;;;;;;;;5048345;28;4483;-63
2023/04/10 03:00:51;;;;;;;;;;;;;;;;;;5048626;28;3248;-63
2023/04/10 03:03:17;;;;;;;;;;;;;;;;;;5046889;28;5014;-62
2023/04/10 03:05:42;;;;;;;;;;;;;;;;;;5081829;28;4502;-63
2023/04/10 03:08:08;;;;;;;;;;;;;;;;;;5047946;28;4852;-63
2023/04/10 03:10:33;;;;;;;;;;;;;;;;;;5046900;28;4504;-63
2023/04/10 03:12:58;;;;;;;;;;;;;;;;;;5055261;28;3164;-63
2023/04/10 03:15:23;;;;;;;;;;;;;;;;;;5053054;28;5429;-63
2023/04/10 03:17:49;;;;;;;;;;;;;;;;;;5050740;28;4515;-64
2023/04/10 03:20:14;;;;;;;;;;;;;;;;;;5054420;28;4685;-63
2023/04/10 03:22:40;;;;;;;;;;;;;;;;;;5055538;28;4496;-63
2023/04/10 03:25:05;;;;;;;;;;;;;;;;;;5063092;28;4736;-64
2023/04/10 03:27:33;;;;;;;;;;;;;;;;;;5052773;28;4975;-64
2023/04/10 03:29:58;;;;;;;;;;;;;;;;;;5055735;28;4588;-62
2023/04/10 03:32:24;;;;;;;;;;;;;;;;;;5046088;28;6207;-63
2023/04/10 03:34:49;;;;;;;;;;;;;;;;;;5052258;28;4603;-62
2023/04/10 03:37:14;;;;;;;;;;;;;;;;;;5052808;28;3219;-62
2023/04/10 03:39:39;;;;;;;;;;;;;;;;;;5051039;28;5074;-62
2023/04/10 03:42:05;;;;;;;;;;;;;;;;;;5045992;28;4676;-63
2023/04/10 03:44:30;;;;;;;;;;;;;;;;;;5054491;28;5525;-62
2023/04/10 03:46:55;;;;;;;;;;;;;;;;;;5063780;28;5041;-63
2023/04/10 03:49:20;;;;;;;;;;;;;;;;;;5050733;28;3203;-63
2023/04/10 03:51:46;;;;;;;;;;;;;;;;;;5054880;28;4488;-63
2023/04/10 03:54:11;;;;;;;;;;;;;;;;;;5058080;28;4494;-63
2023/04/10 03:56:36;;;;;;;;;;;;;;;;;;5040105;28;5294;-63
2023/04/10 03:59:01;;;;;;;;;;;;;;;;;;5056738;28;5003;-62
2023/04/10 04:01:27;;;;;;;;;;;;;;;;;;5050620;28;4537;-63
2023/04/10 04:03:52;;;;;;;;;;;;;;;;;;5054359;28;1145;-63
2023/04/10 04:06:17;;;;;;;;;;;;;;;;;;5052242;28;4560;-63
2023/04/10 04:08:42;;;;;;;;;;;;;;;;;;5043006;28;4513;-62
2023/04/10 04:11:08;;;;;;;;;;;;;;;;;;5054274;28;5006;-62
2023/04/10 04:13:33;;;;;;;;;;;;;;;;;;5050015;28;4704;-63
2023/04/10 04:15:58;;;;;;;;;;;;;;;;;;5041839;28;3286;-62
2023/04/10 04:18:24;;;;;;;;;;;;;;;;;;5057209;28;5013;-62
2023/04/10 04:20:49;;;;;;;;;;;;;;;;;;5058976;28;4421;-63
2023/04/10 04:23:16;;;;;;;;;;;;;;;;;;5052501;28;5289;-63
2023/04/10 04:25:42;;;;;;;;;;;;;;;;;;5052158;28;5040;-63
2023/04/10 04:28:08;;;;;;;;;;;;;;;;;;5044020;28;3242;-63
2023/04/10 04:30:33;;;;;;;;;;;;;;;;;;5043706;28;4433;-63
2023/04/10 04:32:59;;;;;;;;;;;;;;;;;;5051262;28;4707;-63
2023/04/10 04:35:24;;;;;;;;;;;;;;;;;;5047738;28;4866;-63
2023/04/10 04:37:49;;;;;;;;;;;;;;;;;;5050900;28;5271;-63
2023/04/10 04:40:15;;;;;;;;;;;;;;;;;;5052434;28;3294;-63
2023/04/10 04:42:40;;;;;;;;;;;;;;;;;;5048422;28;4791;-63
2023/04/10 04:45:06;;;;;;;;;;;;;;;;;;5077689;28;4597;-64
2023/04/10 04:47:31;;;;;;;;;;;;;;;;;;5058788;28;4599;-64
2023/04/10 04:49:56;;;;;;;;;;;;;;;;;;5057308;28;4554;-63
2023/04/10 04:52:22;;;;;;;;;;;;;;;;;;5060738;28;4773;-59
2023/04/10 04:54:47;;;;;;;;;;;;;;;;;;5050423;28;3290;-63
2023/04/10 04:57:13;;;;;;;;;;;;;;;;;;5049458;28;4521;-63
2023/04/10 04:59:38;;;;;;;;;;;;;;;;;;5052191;28;5079;-63
2023/04/10 05:02:03;;;;;;;;;;;;;;;;;;5049842;28;4819;-63
2023/04/10 05:04:28;;;;;;;;;;;;;;;;;;5058343;28;5132;-63
2023/04/10 05:06:54;;;;;;;;;;;;;;;;;;5048911;28;3140;-64
2023/04/10 05:09:19;;;;;;;;;;;;;;;;;;5050117;28;4492;-63
2023/04/10 05:11:44;;;;;;;;;;;;;;;;;;5046163;28;5073;-63
2023/04/10 05:14:10;;;;;;;;;;;;;;;;;;5039697;28;5229;-63
2023/04/10 05:16:35;;;;;;;;;;;;;;;;;;5052461;28;5031;-64
2023/04/10 05:19:00;;;;;;;;;;;;;;;;;;5042136;28;3333;-63
2023/04/10 05:21:26;;;;;;;;;;;;;;;;;;5059168;28;4440;-63
2023/04/10 05:23:51;;;;;;;;;;;;;;;;;;5040582;28;5120;-64
2023/04/10 05:26:16;;;;;;;;;;;;;;;;;;5050246;28;4696;-64
2023/04/10 05:28:42;;;;;;;;;;;;;;;;;;5049822;28;4992;-63
2023/04/10 05:31:07;;;;;;;;;;;;;;;;;;5040105;28;3404;-63
2023/04/10 05:33:32;;;;;;;;;;;;;;;;;;5040968;28;4705;-64
2023/04/10 05:35:57;;;;;;;;;;;;;;;;;;5044418;28;4677;-63
2023/04/10 05:38:23;;;;;;;;;;;;;;;;;;5049261;28;4647;-64
2023/04/10 05:40:48;;;;;;;;;;;;;;;;;;5041364;28;4665;-63
2023/04/10 05:43:14;;;;;;;;;;;;;;;;;;5044627;28;3671;-63
2023/04/10 05:45:39;;;;;;;;;;;;;;;;;;5040546;28;4490;-62
2023/04/10 05:48:04;;;;;;;;;;;;;;;;;;5081127;28;4866;-63
2023/04/10 05:50:30;;;;;;;;;;;;;;;;;;5046652;28;4700;-62
2023/04/10 05:52:55;;;;;;;;;;;;;;;;;;5058732;28;4595;-62
2023/04/10 05:55:20;;;;;;;;;;;;;;;;;;5049773;28;3233;-63
2023/04/10 05:57:45;;;;;;;;;;;;;;;;;;5059806;28;5031;-62
2023/04/10 06:00:11;;;;;;;;;;;;;;;;;;5059890;28;4435;-63
2023/04/10 06:02:36;;;;;;;;;;;;;;;;;;5051156;28;4699;-62
2023/04/10 06:05:02;;;;;;;;;;;;;;;;;;5047515;28;4476;-63
2023/04/10 06:07:27;;;;;;;;;;;;;;;;;;5050360;28;4717;-63
2023/04/10 06:09:52;;;;;;;;;;;;;;;;;;5052506;28;3273;-63
2023/04/10 06:12:18;;;;;;;;;;;;;;;;;;5045700;28;5036;-63
2023/04/10 06:14:43;;;;;;;;;;;;;;;;;;5061380;28;4427;-62
2023/04/10 06:17:08;;;;;;;;;;;;;;;;;;5055823;28;5264;-63
2023/04/10 06:19:34;;;;;;;;;;;;;;;;;;5026021;28;5065;-62
2023/04/10 06:21:59;;;;;;;;;;;;;;;;;;5048017;28;1144;-62
2023/04/10 06:24:24;;;;;;;;;;;;;;;;;;5047612;28;5142;-63
2023/04/10 06:26:49;;;;;;;;;;;;;;;;;;5038651;28;4566;-62
2023/04/10 06:29:15;;;;;;;;;;;;;;;;;;5057090;28;4455;-62
2023/04/10 06:31:40;;;;;;;;;;;;;;;;;;5081869;28;4714;-63
2023/04/10 06:34:05;;;;;;;;;;;;;;;;;;5057665;28;1225;-63
2023/04/10 06:36:31;;;;;;;;;;;;;;;;;;5049677;28;5032;-63
2023/04/10 06:38:57;;;;;;;;;;;;;;;;;;5059206;28;5011;-63
2023/04/10 06:41:22;;;;;;;;;;;;;;;;;;5056707;28;4476;-62
2023/04/10 06:43:47;;;;;;;;;;;;;;;;;;5086514;28;5192;-62
2023/04/10 06:46:13;;;;;;;;;;;;;;;;;;5049704;28;3194;-62
2023/04/10 06:48:38;;;;;;;;;;;;;;;;;;5052656;28;5139;-62
2023/04/10 06:51:03;;;;;;;;;;;;;;;;;;5056860;28;4639;-62
2023/04/10 06:53:29;;;;;;;;;;;;;;;;;;5054943;28;4900;-61
2023/04/10 06:55:54;;;;;;;;;;;;;;;;;;5048917;28;4679;-62
2023/04/10 06:58:19;;;;;;;;;;;;;;;;;;5060382;28;1193;-62
2023/04/10 07:00:45;;;;;;;;;;;;;;;;;;5054802;28;5201;-61
2023/04/10 07:03:10;;;;;;;;;;;;;;;;;;5062378;28;4457;-62
2023/04/10 07:05:35;;;;;;;;;;;;;;;;;;5060771;28;4434;-63
2023/04/10 07:08:01;;;;;;;;;;;;;;;;;;5065953;28;4527;-62
2023/04/10 07:10:26;;;;;;;;;;;;;;;;;;5049465;28;4578;-62
2023/04/10 07:12:51;;;;;;;;;;;;;;;;;;5050034;28;3178;-62
2023/04/10 07:15:16;;;;;;;;;;;;;;;;;;5056555;28;4846;-63
2023/04/10 07:17:42;;;;;;;;;;;;;;;;;;5053301;28;4510;-63
2023/04/10 07:20:07;;;;;;;;;;;;;;;;;;5052399;28;4988;-62
2023/04/10 07:22:32;;;;;;;;;;;;;;;;;;5050114;28;4651;-63
2023/04/10 07:24:58;;;;;;;;;;;;;;;;;;5054359;28;4801;-61
2023/04/10 07:27:23;;;;;;;;;;;;;;;;;;5053769;28;5190;-62
2023/04/10 07:29:49;;;;;;;;;;;;;;;;;;5051679;28;4645;-62
2023/04/10 07:32:15;;;;;;;;;;;;;;;;;;5080756;28;4427;-62
2023/04/10 07:34:41;;;;;;;;;;;;;;;;;;5050601;28;4718;-62
2023/04/10 07:37:06;;;;;;;;;;;;;;;;;;5055329;28;1172;-62
2023/04/10 07:39:31;;;;;;;;;;;;;;;;;;5057115;28;4648;-62
2023/04/10 07:41:56;;;;;;;;;;;;;;;;;;5053557;28;4956;-63
2023/04/10 07:44:22;;;;;;;;;;;;;;;;;;5054942;28;5093;-63
2023/04/10 07:46:47;;;;;;;;;;;;;;;;;;5056412;28;5033;-63
2023/04/10 07:49:12;;;;;;;;;;;;;;;;;;5054968;28;1231;-63
2023/04/10 07:51:37;;;;;;;;;;;;;;;;;;5049760;28;4415;-63
2023/04/10 07:54:03;;;;;;;;;;;;;;;;;;5067358;28;4473;-63
2023/04/10 07:56:30;;;;;;;;;;;;;;;;;;5044886;28;4831;-63
2023/04/10 07:58:57;;;;;;;;;;;;;;;;;;5042699;28;5106;-63
2023/04/10 08:01:22;;;;;;;;;;;;;;;;;;5044943;28;4654;-63
2023/04/10 08:03:48;;;;;;;;;;;;;;;;;;5048536;28;1188;-63
2023/04/10 08:06:13;;;;;;;;;;;;;;;;;;5042999;28;4824;-64
2023/04/10 08:08:39;;;;;;;;;;;;;;;;;;5048345;28;5133;-62
2023/04/10 08:11:06;;;;;;;;;;;;;;;;;;5077175;28;4479;-63
2023/04/10 08:13:32;;;;;;;;;;;;;;;;;;5044366;28;4444;-62
2023/04/10 08:15:57;;;;;;;;;;;;;;;;;;5042200;28;1213;-63
2023/04/10 08:18:22;;;;;;;;;;;;;;;;;;5046467;28;4520;-62
2023/04/10 08:20:47;;;;;;;;;;;;;;;;;;5049696;28;4983;-63
2023/04/10 08:23:13;;;;;;;;;;;;;;;;;;5044409;28;5088;-63
2023/04/10 08:25:38;;;;;;;;;;;;;;;;;;5044191;28;4747;-63
2023/04/10 08:28:03;;;;;;;;;;;;;;;;;;5048883;28;1910;-62
2023/04/10 08:30:29;;;;;;;;;;;;;;;;;;5047946;28;4453;-62
2023/04/10 08:32:55;;;;;;;;;;;;;;;;;;5040023;28;5068;-63
2023/04/10 08:35:20;;;;;;;;;;;;;;;;;;5049369;28;5079;-64
2023/04/10 08:37:45;;;;;;;;;;;;;;;;;;5049283;28;5192;-63
2023/04/10 08:40:11;;;;;;;;;;;;;;;;;;5044984;28;1148;-62
2023/04/10 08:42:36;;;;;;;;;;;;;;;;;;5041470;28;4905;-62
2023/04/10 08:45:02;;;;;;;;;;;;;;;;;;5049083;28;4598;-63
2023/04/10 08:47:27;;;;;;;;;;;;;;;;;;5048649;28;5027;-63
2023/04/10 08:49:53;;;;;;;;;;;;;;;;;;5074990;28;4550;-63
2023/04/10 08:52:20;;;;;;;;;;;;;;;;;;5051033;28;1187;-63
2023/04/10 08:54:46;;;;;;;;;;;;;;;;;;5071458;28;4914;-63
2023/04/10 08:57:16;;;;;;;;;;;;;;;;;;5048080;28;4611;-63
2023/04/10 08:59:41;;;;;;;;;;;;;;;;;;5042811;28;4634;-62
2023/04/10 09:02:06;;;;;;;;;;;;;;;;;;5048098;28;4744;-62
2023/04/10 09:04:32;;;;;;;;;;;;;;;;;;5049111;28;4959;-62
2023/04/10 09:06:57;;;;;;;;;;;;;;;;;;5048791;28;3143;-62
2023/04/10 09:09:22;;;;;;;;;;;;;;;;;;5047387;28;4440;-62
2023/04/10 09:11:51;;;;;;;;;;;;;;;;;;5044747;28;4571;-62
2023/04/10 09:14:23;;;;;;;;;;;;;;;;;;5047552;28;4724;-62
2023/04/10 09:16:48;;;;;;;;;;;;;;;;;;5046798;28;5135;-63
2023/04/10 09:19:27;;;;;;;;;;;;;;;;;;5047252;28;1124;-62
2023/04/10 09:21:53;;;;;;;;;;;;;;;;;;5047431;28;4935;-62
2023/04/10 09:24:18;;;;;;;;;;;;;;;;;;5046981;28;4992;-63
2023/04/10 09:26:43;;;;;;;;;;;;;;;;;;5040206;28;4932;-62
2023/04/10 09:29:11;;;;;;;;;;;;;;;;;;5048096;28;4642;-62
2023/04/10 09:31:36;;;;;;;;;;;;;;;;;;5047484;28;4813;-63
2023/04/10 09:34:08;;;;;;;;;;;;;;;;;;5047053;28;1663;-62
2023/04/10 09:36:33;;;;;;;;;;;;;;;;;;5037497;28;4452;-62
2023/04/10 09:38:58;;;;;;;;;;;;;;;;;;5047600;28;4935;-63
2023/04/10 09:41:23;;;;;;;;;;;;;;;;;;5045339;28;4481;-61
2023/04/10 09:43:49;;;;;;;;;;;;;;;;;;5043436;28;4726;-61
2023/04/10 09:46:24;;;;;;;;;;;;;;;;;;5048458;28;1191;-62
2023/04/10 09:48:56;;;;;;;;;;;;;;;;;;5047562;28;4596;-63
2023/04/10 09:51:28;;;;;;;;;;;;;;;;;;5042899;28;4830;-63
2023/04/10 09:53:54;;;;;;;;;;;;;;;;;;5041083;28;4656;-64
2023/04/10 09:56:20;;;;;;;;;;;;;;;;;;5037015;28;4902;-62
2023/04/10 09:58:46;;;;;;;;;;;;;;;;;;5046792;28;4635;-64
2023/04/10 10:01:11;;;;;;;;;;;;;;;;;;5046980;28;1205;-65
2023/04/10 10:03:36;;;;;;;;;;;;;;;;;;5074482;28;5053;-65
2023/04/10 10:06:01;;;;;;;;;;;;;;;;;;5078822;28;5517;-63
2023/04/10 10:08:27;;;;;;;;;;;;;;;;;;5046268;28;4680;-61
2023/04/10 10:10:53;;;;;;;;;;;;;;;;;;5041512;28;4456;-61
2023/04/10 10:13:28;;;;;;;;;;;;;;;;;;5041402;28;1353;-62
2023/04/10 10:16:03;;;;;;;;;;;;;;;;;;5052323;28;5011;-63
2023/04/10 10:18:47;;;;;;;;;;;;;;;;;;5063855;28;5059;-63
2023/04/10 10:21:12;;;;;;;;;;;;;;;;;;5044127;28;4930;-63
2023/04/10 10:23:37;;;;;;;;;;;;;;;;;;5039278;28;4435;-63
2023/04/10 10:26:04;;;;;;;;;;;;;;;;;;5079483;28;4728;-63
2023/04/10 10:28:29;;;;;;;;;;;;;;;;;;5044354;28;5238;-63
2023/04/10 10:30:55;;;;;;;;;;;;;;;;;;5047587;28;1644;-64
2023/04/10 10:33:20;;;;;;;;;;;;;;;;;;5046738;28;4457;-63
2023/04/10 10:35:46;;;;;;;;;;;;;;;;;;5043774;28;5140;-64
2023/04/10 10:38:11;;;;;;;;;;;;;;;;;;5066510;28;5092;-64
2023/04/10 10:40:39;;;;;;;;;;;;;;;;;;5045357;28;4748;-63
2023/04/10 10:43:07;;;;;;;;;;;;;;;;;;5039479;28;1440;-64
2023/04/10 10:45:37;;;;;;;;;;;;;;;;;;5045462;28;4422;-64
2023/04/10 10:48:02;;;;;;;;;;;;;;;;;;5070549;28;5786;-64
2023/04/10 10:50:47;;;;;;;;;;;;;;;;;;5041226;28;4997;-64
2023/04/10 10:53:29;;;;;;;;;;;;;;;;;;5045566;28;4466;-63
2023/04/10 10:55:54;;;;;;;;;;;;;;;;;;5039497;28;4587;-64
2023/04/10 10:58:19;;;;;;;;;;;;;;;;;;5038068;28;3206;-60
2023/04/10 11:00:51;;;;;;;;;;;;;;;;;;5074121;28;4634;-62
2023/04/10 11:03:16;;;;;;;;;;;;;;;;;;5038507;28;4581;-59
2023/04/10 11:05:57;;;;;;;;;;;;;;;;;;5041088;28;4761;-58
2023/04/10 11:08:32;;;;;;;;;;;;;;;;;;5037132;28;4564;-58
2023/04/10 11:11:07;;;;;;;;;;;;;;;;;;5067987;28;5010;-59
2023/04/10 11:13:34;;;;;;;;;;;;;;;;;;5039997;28;4517;-58
2023/04/10 11:16:01;;;;;;;;;;;;;;;;;;5076227;28;1201;-64
2023/04/10 11:18:45;;;;;;;;;;;;;;;;;;5039562;28;4445;-60
2023/04/10 11:21:14;;;;;;;;;;;;;;;;;;5047930;28;4779;-59
2023/04/10 11:23:51;;;;;;;;;;;;;;;;;;5043851;28;4518;-59
2023/04/10 11:26:41;;;;;;;;;;;;;;;;;;5035252;28;4649;-59
2023/04/10 11:29:16;;;;;;;;;;;;;;;;;;5041572;28;4486;-62
2023/04/10 11:31:42;;;;;;;;;;;;;;;;;;5036684;28;4637;-60
2023/04/10 11:34:07;;;;;;;;;;;;;;;;;;5074988;28;1317;-60
2023/04/10 11:36:33;;;;;;;;;;;;;;;;;;5046695;28;4684;-61
2023/04/10 11:38:59;;;;;;;;;;;;;;;;;;5046514;28;4506;-62
2023/04/10 11:41:26;;;;;;;;;;;;;;;;;;5046027;28;4524;-61
2023/04/10 11:43:51;;;;;;;;;;;;;;;;;;5040254;28;4463;-61
2023/04/10 11:46:17;;;;;;;;;;;;;;;;;;5040293;28;3374;-61
2023/04/10 11:48:42;;;;;;;;;;;;;;;;;;5047714;28;4905;-60
2023/04/10 11:51:08;;;;;;;;;;;;;;;;;;5050221;28;4440;-60
2023/04/10 11:53:33;;;;;;;;;;;;;;;;;;5048896;28;4631;-60
2023/04/10 11:55:59;;;;;;;;;;;;;;;;;;5046637;28;5492;-61
2023/04/10 11:58:28;;;;;;;;;;;;;;;;;;5051083;28;4662;-61
2023/04/10 12:00:57;;;;;;;;;;;;;;;;;;5050397;28;3174;-60
2023/04/10 12:03:38;;;;;;;;;;;;;;;;;;5037704;28;4791;-61
2023/04/10 12:06:04;;;;;;;;;;;;;;;;;;5042874;28;4612;-60
2023/04/10 12:08:33;;;;;;;;;;;;;;;;;;5074388;28;4541;-60
2023/04/10 12:10:58;;;;;;;;;;;;;;;;;;5047553;28;4598;-61
2023/04/10 12:13:24;;;;;;;;;;;;;;;;;;5038282;28;4440;-60
2023/04/10 12:15:50;;;;;;;;;;;;;;;;;;5038696;28;1298;-60
2023/04/10 12:18:15;;;;;;;;;;;;;;;;;;5040209;28;5830;-60
2023/04/10 12:20:40;;;;;;;;;;;;;;;;;;5047883;28;4655;-61
2023/04/10 12:23:05;;;;;;;;;;;;;;;;;;5038659;28;4686;-60
2023/04/10 12:25:31;;;;;;;;;;;;;;;;;;5040023;28;4759;-60
2023/04/10 12:27:56;;;;;;;;;;;;;;;;;;5078206;28;1914;-59
2023/04/10 12:30:21;;;;;;;;;;;;;;;;;;5047195;28;4613;-59
2023/04/10 12:32:51;;;;;;;;;;;;;;;;;;5045365;28;4768;-61
2023/04/10 12:35:16;;;;;;;;;;;;;;;;;;5047984;28;4765;-61
2023/04/10 12:37:51;;;;;;;;;;;;;;;;;;5081556;28;4695;-58
2023/04/10 12:40:16;;;;;;;;;;;;;;;;;;5041860;28;3170;-61
2023/04/10 12:42:42;;;;;;;;;;;;;;;;;;5035542;28;4386;-59
2023/04/10 12:45:08;;;;;;;;;;;;;;;;;;5044361;28;5004;-59
2023/04/10 12:47:41;;;;;;;;;;;;;;;;;;5047340;28;4539;-58
2023/04/10 12:50:14;;;;;;;;;;;;;;;;;;5037383;28;4622;-58
2023/04/10 12:52:40;;;;;;;;;;;;;;;;;;5034984;28;4491;-61
2023/04/10 12:55:12;;;;;;;;;;;;;;;;;;5042126;28;3273;-60
2023/04/10 12:57:38;;;;;;;;;;;;;;;;;;5038106;28;4550;-60
2023/04/10 13:00:04;;;;;;;;;;;;;;;;;;5035429;28;4464;-60
2023/04/10 13:02:29;;;;;;;;;;;;;;;;;;5046479;28;4668;-59
2023/04/10 13:04:55;;;;;;;;;;;;;;;;;;5038706;28;4632;-59
2023/04/10 13:07:20;;;;;;;;;;;;;;;;;;5035153;28;3363;-59
2023/04/10 13:09:46;;;;;;;;;;;;;;;;;;5044439;28;5340;-60
2023/04/10 13:12:11;;;;;;;;;;;;;;;;;;5037826;28;4996;-63
2023/04/10 13:14:36;;;;;;;;;;;;;;;;;;5055918;28;5956;-62
2023/04/10 13:17:02;;;;;;;;;;;;;;;;;;5040915;28;4723;-57
2023/04/10 13:19:27;;;;;;;;;;;;;;;;;;5034120;28;4699;-47
2023/04/10 13:21:52;;;;;;;;;;;;;;;;;;5039071;28;3169;-54
2023/04/10 13:24:18;;;;;;;;;;;;;;;;;;5038180;28;4554;-54
2023/04/10 13:26:43;;;;;;;;;;;;;;;;;;5034633;28;4717;-53
2023/04/10 13:29:08;;;;;;;;;;;;;;;;;;5039590;28;4707;-52
2023/04/10 13:31:34;;;;;;;;;;;;;;;;;;5036666;28;4464;-50
2023/04/10 13:33:59;;;;;;;;;;;;;;;;;;5047184;28;1096;-52
2023/04/10 13:36:25;;;;;;;;;;;;;;;;;;5038509;28;4530;-55
2023/04/10 13:38:50;;;;;;;;;;;;;;;;;;5042511;28;5058;-55
2023/04/10 13:41:16;;;;;;;;;;;;;;;;;;5038853;28;5062;-53
2023/04/10 13:43:41;;;;;;;;;;;;;;;;;;5035562;28;5041;-52
2023/04/10 13:46:06;;;;;;;;;;;;;;;;;;5042577;28;3186;-56
2023/04/10 13:48:31;;;;;;;;;;;;;;;;;;5039526;28;5042;-57
2023/04/10 13:50:57;;;;;;;;;;;;;;;;;;5043456;28;4640;-49
2023/04/10 13:53:22;;;;;;;;;;;;;;;;;;5038731;28;4664;-55
2023/04/10 13:55:49;;;;;;;;;;;;;;;;;;5033472;28;4523;-51
2023/04/10 13:58:14;;;;;;;;;;;;;;;;;;5032481;28;3167;-51
2023/04/10 14:00:41;;;;;;;;;;;;;;;;;;5041085;28;4631;-54
2023/04/10 14:03:08;;;;;;;;;;;;;;;;;;5039965;28;4880;-57
2023/04/10 14:05:34;;;;;;;;;;;;;;;;;;5040462;28;4480;-54
2023/04/10 14:07:59;;;;;;;;;;;;;;;;;;5039346;28;5088;-56
2023/04/10 14:10:24;;;;;;;;;;;;;;;;;;5039553;28;4996;-56
2023/04/10 14:12:50;;;;;;;;;;;;;;;;;;5042175;28;3164;-56
2023/04/10 14:15:15;;;;;;;;;;;;;;;;;;5043973;28;5049;-56
2023/04/10 14:17:41;;;;;;;;;;;;;;;;;;5037891;28;4979;-54
2023/04/10 14:20:06;;;;;;;;;;;;;;;;;;5055986;28;4457;-57
2023/04/10 14:22:31;;;;;;;;;;;;;;;;;;5034227;28;5097;-53
2023/04/10 14:24:57;;;;;;;;;;;;;;;;;;5039088;28;4786;-56
2023/04/10 14:27:22;;;;;;;;;;;;;;;;;;5035268;28;4440;-57
2023/04/10 14:29:47;;;;;;;;;;;;;;;;;;5071034;28;4853;-58
2023/04/10 14:32:13;;;;;;;;;;;;;;;;;;5039700;28;4489;-58
2023/04/10 14:34:38;;;;;;;;;;;;;;;;;;5032210;28;4543;-53
2023/04/10 14:37:03;;;;;;;;;;;;;;;;;;5038281;28;1185;-57
2023/04/10 14:39:29;;;;;;;;;;;;;;;;;;5039387;28;4809;-52
2023/04/10 14:41:55;;;;;;;;;;;;;;;;;;5042593;28;4502;-58
2023/04/10 14:44:21;;;;;;;;;;;;;;;;;;5043218;28;5072;-57
2023/04/10 14:46:46;;;;;;;;;;;;;;;;;;5037254;28;4920;-55
2023/04/10 14:49:12;;;;;;;;;;;;;;;;;;5044591;28;2995;-58
2023/04/10 14:51:37;;;;;;;;;;;;;;;;;;5073369;28;5377;-58
2023/04/10 14:54:04;;;;;;;;;;;;;;;;;;5046259;28;4412;-56
2023/04/10 14:56:29;;;;;;;;;;;;;;;;;;5045015;28;4984;-55
2023/04/10 14:58:54;;;;;;;;;;;;;;;;;;5037328;28;5127;-56
2023/04/10 15:01:20;;;;;;;;;;;;;;;;;;5044064;28;3122;-66
2023/04/10 15:03:45;;;;;;;;;;;;;;;;;;5038244;28;4928;-67
2023/04/10 15:06:11;;;;;;;;;;;;;;;;;;5046467;28;4518;-68
2023/04/10 15:08:36;;;;;;;;;;;;;;;;;;5054819;28;4499;-67
2023/04/10 15:11:03;;;;;;;;;;;;;;;;;;5060946;28;4477;-67
2023/04/10 15:13:29;;;;;;;;;;;;;;;;;;5043564;28;4852;-67
2023/04/10 15:15:55;;;;;;;;;;;;;;;;;;5052467;28;3358;-68
2023/04/10 15:18:20;;;;;;;;;;;;;;;;;;5049485;28;4830;-67
2023/04/10 15:20:45;;;;;;;;;;;;;;;;;;5053958;28;4480;-69
2023/04/10 15:23:11;;;;;;;;;;;;;;;;;;5052129;28;4856;-67
2023/04/10 15:25:36;;;;;;;;;;;;;;;;;;5045265;28;4737;-67
2023/04/10 15:28:01;;;;;;;;;;;;;;;;;;5058519;28;3271;-66
2023/04/10 15:30:26;;;;;;;;;;;;;;;;;;5060895;28;4451;-68
2023/04/10 15:32:52;;;;;;;;;;;;;;;;;;5053656;28;4681;-66
2023/04/10 15:35:17;;;;;;;;;;;;;;;;;;5042718;28;4499;-67
2023/04/10 15:37:42;;;;;;;;;;;;;;;;;;5058733;28;4705;-67
2023/04/10 15:40:09;;;;;;;;;;;;;;;;;;5057399;28;3204;-66
2023/04/10 15:42:34;;;;;;;;;;;;;;;;;;5045011;28;4548;-66
2023/04/10 15:44:59;;;;;;;;;;;;;;;;;;5057718;28;4646;-65
2023/04/10 15:47:25;;;;;;;;;;;;;;;;;;5054599;28;4909;-67
2023/04/10 15:49:50;;;;;;;;;;;;;;;;;;5043562;28;4539;-67
2023/04/10 15:52:15;;;;;;;;;;;;;;;;;;5055655;28;3191;-67
2023/04/10 15:54:41;;;;;;;;;;;;;;;;;;5057697;28;4678;-67
2023/04/10 15:57:06;;;;;;;;;;;;;;;;;;5050488;28;4664;-67
2023/04/10 15:59:31;;;;;;;;;;;;;;;;;;5053726;28;5161;-67
2023/04/10 16:01:57;;;;;;;;;;;;;;;;;;5037094;28;4640;-67
2023/04/10 16:04:22;;;;;;;;;;;;;;;;;;5053793;28;5007;-65
2023/04/10 16:06:47;;;;;;;;;;;;;;;;;;5046777;28;3484;-61
2023/04/10 16:09:12;;;;;;;;;;;;;;;;;;5044577;28;5135;-60
2023/04/10 16:11:38;;;;;;;;;;;;;;;;;;5050592;28;5190;-61
2023/04/10 16:14:03;;;;;;;;;;;;;;;;;;5051270;28;4545;-62
2023/04/10 16:16:29;;;;;;;;;;;;;;;;;;5041284;28;5129;-62
2023/04/10 16:18:55;;;;;;;;;;;;;;;;;;5048893;28;3243;-61
2023/04/10 16:21:20;;;;;;;;;;;;;;;;;;5059062;28;4641;-61
2023/04/10 16:23:46;;;;;;;;;;;;;;;;;;5051432;28;4459;-62
2023/04/10 16:26:11;;;;;;;;;;;;;;;;;;5052782;28;4901;-61
2023/04/10 16:28:36;;;;;;;;;;;;;;;;;;5048984;28;4714;-62
2023/04/10 16:31:01;;;;;;;;;;;;;;;;;;5057385;28;1350;-62
2023/04/10 16:33:28;;;;;;;;;;;;;;;;;;5051793;28;4914;-61
2023/04/10 16:35:54;;;;;;;;;;;;;;;;;;5048539;28;4666;-61
2023/04/10 16:38:20;;;;;;;;;;;;;;;;;;5051067;28;4494;-61
2023/04/10 16:40:45;;;;;;;;;;;;;;;;;;5053492;28;4430;-62
2023/04/10 16:43:11;;;;;;;;;;;;;;;;;;5054556;28;1504;-62
2023/04/10 16:45:36;;;;;;;;;;;;;;;;;;5060764;28;4723;-62
2023/04/10 16:48:02;;;;;;;;;;;;;;;;;;5050346;28;4435;-62
2023/04/10 16:50:27;;;;;;;;;;;;;;;;;;5049806;28;4940;-62
2023/04/10 16:52:52;;;;;;;;;;;;;;;;;;5050659;28;5080;-64
2023/04/10 16:55:18;;;;;;;;;;;;;;;;;;5051414;28;3336;-63
2023/04/10 16:57:44;;;;;;;;;;;;;;;;;;5043838;28;4554;-64